sensor_id;sensor_type;location;lat;lon;timestamp;P1;durP1;ratioP1;P2;durP2;ratioP2
50531;SDS011;36483;37.396;-122.212;2023-05-07T00:00:47;5.15;;;1.00;;
50531;SDS011;36483;37.396;-122.212;2023-05-07T00:03:13;4.80;;;1.10;;
50531;SDS011;36483;37.396;-122.212;2023-05-07T00:05:39;2.35;;;1.10;;
50531;SDS011;36483;37.396;-122.212;2023-05-07T00:08:06;3.85;;;1.10;;
50531;SDS011;36483;37.396;-122.212;2023-05-07T00:10:33;4.65;;;1.08;;
50531;SDS011;36483;37.396;-122.212;2023-05-07T00:12:59;3.13;;;1.20;;
50531;SDS011;36483;37.396;-122.212;2023-05-07T00:15:25;3.35;;;1.00;;
50531;SDS011;36483;37.396;-122.212;2023-05-07T00:17:51;3.20;;;1.10;;
50531;SDS011;36483;37.396;-122.212;2023-05-07T00:20:18;4.10;;;1.15;;
50531;SDS011;36483;37.396;-122.212;2023-05-07T00:22:45;2.47;;;1.00;;
50531;SDS011;36483;37.396;-122.212;2023-05-07T00:25:11;3.25;;;1.02;;
50531;SDS011;36483;37.396;-122.212;2023-05-07T00:27:37;3.70;;;1.13;;
50531;SDS011;36483;37.396;-122.212;2023-05-07T00:30:03;2.70;;;1.33;;
50531;SDS011;36483;37.396;-122.212;2023-05-07T00:32:30;2.72;;;1.00;;
50531;SDS011;36483;37.396;-122.212;2023-05-07T00:34:56;3.70;;;1.00;;
50531;SDS011;36483;37.396;-122.212;2023-05-07T00:37:22;5.32;;;1.30;;
50531;SDS011;36483;37.396;-122.212;2023-05-07T00:39:48;2.10;;;1.08;;
50531;SDS011;36483;37.396;-122.212;2023-05-07T00:42:14;2.72;;;1.13;;
50531;SDS011;36483;37.396;-122.212;2023-05-07T00:44:41;3.78;;;1.42;;
50531;SDS011;36483;37.396;-122.212;2023-05-07T00:47:07;4.43;;;1.40;;
50531;SDS011;36483;37.396;-122.212;2023-05-07T00:49:43;3.55;;;1.30;;
50531;SDS011;36483;37.396;-122.212;2023-05-07T00:52:13;3.58;;;1.20;;
50531;SDS011;36483;37.396;-122.212;2023-05-07T00:54:42;3.35;;;1.17;;
50531;SDS011;36483;37.396;-122.212;2023-05-07T00:57:11;3.97;;;1.33;;
50531;SDS011;36483;37.396;-122.212;2023-05-07T00:59:37;4.90;;;1.20;;
50531;SDS011;36483;37.396;-122.212;2023-05-07T01:02:04;3.58;;;1.40;;
50531;SDS011;36483;37.396;-122.212;2023-05-07T01:04:31;2.92;;;1.13;;
50531;SDS011;36483;37.396;-122.212;2023-05-07T01:06:57;2.80;;;1.00;;
50531;SDS011;36483;37.396;-122.212;2023-05-07T01:09:24;2.60;;;0.80;;
50531;SDS011;36483;37.396;-122.212;2023-05-07T01:11:51;2.40;;;0.90;;
50531;SDS011;36483;37.396;-122.212;2023-05-07T01:14:18;3.38;;;1.10;;
50531;SDS011;36483;37.396;-122.212;2023-05-07T01:16:44;4.93;;;1.20;;
50531;SDS011;36483;37.396;-122.212;2023-05-07T01:19:11;4.80;;;1.35;;
50531;SDS011;36483;37.396;-122.212;2023-05-07T01:21:43;3.08;;;1.10;;
50531;SDS011;36483;37.396;-122.212;2023-05-07T01:24:12;4.28;;;1.30;;
50531;SDS011;36483;37.396;-122.212;2023-05-07T01:26:39;3.42;;;1.17;;
50531;SDS011;36483;37.396;-122.212;2023-05-07T01:29:06;3.17;;;1.45;;
50531;SDS011;36483;37.396;-122.212;2023-05-07T01:31:33;3.50;;;1.25;;
50531;SDS011;36483;37.396;-122.212;2023-05-07T01:34:00;4.82;;;0.95;;
50531;SDS011;36483;37.396;-122.212;2023-05-07T01:36:27;2.75;;;0.82;;
50531;SDS011;36483;37.396;-122.212;2023-05-07T01:38:55;3.38;;;1.00;;
50531;SDS011;36483;37.396;-122.212;2023-05-07T01:41:23;5.18;;;1.27;;
50531;SDS011;36483;37.396;-122.212;2023-05-07T01:43:50;1.83;;;1.00;;
50531;SDS011;36483;37.396;-122.212;2023-05-07T01:46:17;3.40;;;1.23;;
50531;SDS011;36483;37.396;-122.212;2023-05-07T01:48:43;2.30;;;0.77;;
50531;SDS011;36483;37.396;-122.212;2023-05-07T01:51:11;3.17;;;1.00;;
50531;SDS011;36483;37.396;-122.212;2023-05-07T01:53:38;3.85;;;1.02;;
50531;SDS011;36483;37.396;-122.212;2023-05-07T01:56:06;4.78;;;1.13;;
50531;SDS011;36483;37.396;-122.212;2023-05-07T01:58:32;2.38;;;0.80;;
50531;SDS011;36483;37.396;-122.212;2023-05-07T02:00:58;5.53;;;1.02;;
50531;SDS011;36483;37.396;-122.212;2023-05-07T02:03:25;3.83;;;1.17;;
50531;SDS011;36483;37.396;-122.212;2023-05-07T02:05:51;1.70;;;1.02;;
50531;SDS011;36483;37.396;-122.212;2023-05-07T02:08:17;4.20;;;1.27;;
50531;SDS011;36483;37.396;-122.212;2023-05-07T02:10:43;2.42;;;1.17;;
50531;SDS011;36483;37.396;-122.212;2023-05-07T02:13:09;4.57;;;1.30;;
50531;SDS011;36483;37.396;-122.212;2023-05-07T02:15:36;3.13;;;1.50;;
50531;SDS011;36483;37.396;-122.212;2023-05-07T02:18:03;3.85;;;1.40;;
50531;SDS011;36483;37.396;-122.212;2023-05-07T02:20:31;4.13;;;1.00;;
50531;SDS011;36483;37.396;-122.212;2023-05-07T02:22:57;2.60;;;1.00;;
50531;SDS011;36483;37.396;-122.212;2023-05-07T02:25:23;3.08;;;1.17;;
50531;SDS011;36483;37.396;-122.212;2023-05-07T02:27:50;4.85;;;1.33;;
50531;SDS011;36483;37.396;-122.212;2023-05-07T02:30:16;3.13;;;1.17;;
50531;SDS011;36483;37.396;-122.212;2023-05-07T02:32:42;2.22;;;1.08;;
50531;SDS011;36483;37.396;-122.212;2023-05-07T02:35:08;4.05;;;1.10;;
50531;SDS011;36483;37.396;-122.212;2023-05-07T02:37:35;2.15;;;0.98;;
50531;SDS011;36483;37.396;-122.212;2023-05-07T02:40:01;5.28;;;1.33;;
50531;SDS011;36483;37.396;-122.212;2023-05-07T02:42:29;3.63;;;1.30;;
50531;SDS011;36483;37.396;-122.212;2023-05-07T02:44:55;4.80;;;1.30;;
50531;SDS011;36483;37.396;-122.212;2023-05-07T02:47:21;2.47;;;1.13;;
50531;SDS011;36483;37.396;-122.212;2023-05-07T02:49:47;3.75;;;1.40;;
50531;SDS011;36483;37.396;-122.212;2023-05-07T02:52:14;7.05;;;1.70;;
50531;SDS011;36483;37.396;-122.212;2023-05-07T02:54:40;3.17;;;1.17;;
50531;SDS011;36483;37.396;-122.212;2023-05-07T02:57:06;2.50;;;1.20;;
50531;SDS011;36483;37.396;-122.212;2023-05-07T02:59:32;3.05;;;1.20;;
50531;SDS011;36483;37.396;-122.212;2023-05-07T03:01:58;4.03;;;1.30;;
50531;SDS011;36483;37.396;-122.212;2023-05-07T03:04:24;5.45;;;1.50;;
50531;SDS011;36483;37.396;-122.212;2023-05-07T03:06:50;3.10;;;1.10;;
50531;SDS011;36483;37.396;-122.212;2023-05-07T03:09:17;4.32;;;1.40;;
50531;SDS011;36483;37.396;-122.212;2023-05-07T03:11:43;2.67;;;1.33;;
50531;SDS011;36483;37.396;-122.212;2023-05-07T03:14:09;3.03;;;1.30;;
50531;SDS011;36483;37.396;-122.212;2023-05-07T03:16:35;4.70;;;1.60;;
50531;SDS011;36483;37.396;-122.212;2023-05-07T03:19:01;4.53;;;1.27;;
50531;SDS011;36483;37.396;-122.212;2023-05-07T03:21:27;4.45;;;1.30;;
50531;SDS011;36483;37.396;-122.212;2023-05-07T03:23:54;2.30;;;1.25;;
50531;SDS011;36483;37.396;-122.212;2023-05-07T03:26:20;5.63;;;1.40;;
50531;SDS011;36483;37.396;-122.212;2023-05-07T03:28:46;3.65;;;1.40;;
50531;SDS011;36483;37.396;-122.212;2023-05-07T03:31:12;2.75;;;1.23;;
50531;SDS011;36483;37.396;-122.212;2023-05-07T03:33:51;5.05;;;1.63;;
50531;SDS011;36483;37.396;-122.212;2023-05-07T03:36:22;3.47;;;1.25;;
50531;SDS011;36483;37.396;-122.212;2023-05-07T03:38:49;3.90;;;1.27;;
50531;SDS011;36483;37.396;-122.212;2023-05-07T03:41:15;5.20;;;1.42;;
50531;SDS011;36483;37.396;-122.212;2023-05-07T03:43:42;3.35;;;1.33;;
50531;SDS011;36483;37.396;-122.212;2023-05-07T03:46:08;6.90;;;2.08;;
50531;SDS011;36483;37.396;-122.212;2023-05-07T03:48:34;5.40;;;1.60;;
50531;SDS011;36483;37.396;-122.212;2023-05-07T03:51:00;2.95;;;1.30;;
50531;SDS011;36483;37.396;-122.212;2023-05-07T03:53:26;4.40;;;1.40;;
50531;SDS011;36483;37.396;-122.212;2023-05-07T03:55:53;5.75;;;1.55;;
50531;SDS011;36483;37.396;-122.212;2023-05-07T03:58:19;6.47;;;1.30;;
50531;SDS011;36483;37.396;-122.212;2023-05-07T04:00:45;4.13;;;1.48;;
50531;SDS011;36483;37.396;-122.212;2023-05-07T04:03:11;5.25;;;1.40;;
50531;SDS011;36483;37.396;-122.212;2023-05-07T04:05:37;4.07;;;1.60;;
50531;SDS011;36483;37.396;-122.212;2023-05-07T04:08:03;5.97;;;1.63;;
50531;SDS011;36483;37.396;-122.212;2023-05-07T04:10:30;2.42;;;1.30;;
50531;SDS011;36483;37.396;-122.212;2023-05-07T04:12:56;2.78;;;1.33;;
50531;SDS011;36483;37.396;-122.212;2023-05-07T04:15:23;3.53;;;1.50;;
50531;SDS011;36483;37.396;-122.212;2023-05-07T04:17:49;3.28;;;1.40;;
50531;SDS011;36483;37.396;-122.212;2023-05-07T04:20:16;3.63;;;1.40;;
50531;SDS011;36483;37.396;-122.212;2023-05-07T04:22:42;3.92;;;1.33;;
50531;SDS011;36483;37.396;-122.212;2023-05-07T04:25:09;4.57;;;1.38;;
50531;SDS011;36483;37.396;-122.212;2023-05-07T04:27:35;3.10;;;1.50;;
50531;SDS011;36483;37.396;-122.212;2023-05-07T04:30:02;3.05;;;1.30;;
50531;SDS011;36483;37.396;-122.212;2023-05-07T04:32:29;4.55;;;1.65;;
50531;SDS011;36483;37.396;-122.212;2023-05-07T04:34:56;3.35;;;1.33;;
50531;SDS011;36483;37.396;-122.212;2023-05-07T04:37:22;6.13;;;1.70;;
50531;SDS011;36483;37.396;-122.212;2023-05-07T04:39:48;6.13;;;1.60;;
50531;SDS011;36483;37.396;-122.212;2023-05-07T04:42:15;6.57;;;1.60;;
50531;SDS011;36483;37.396;-122.212;2023-05-07T04:44:43;3.35;;;1.48;;
50531;SDS011;36483;37.396;-122.212;2023-05-07T04:47:10;4.05;;;1.90;;
50531;SDS011;36483;37.396;-122.212;2023-05-07T04:49:37;4.10;;;1.58;;
50531;SDS011;36483;37.396;-122.212;2023-05-07T04:52:04;5.85;;;1.60;;
50531;SDS011;36483;37.396;-122.212;2023-05-07T04:54:30;3.92;;;2.00;;
50531;SDS011;36483;37.396;-122.212;2023-05-07T04:56:56;6.30;;;1.80;;
50531;SDS011;36483;37.396;-122.212;2023-05-07T04:59:22;4.68;;;1.52;;
50531;SDS011;36483;37.396;-122.212;2023-05-07T05:01:48;5.38;;;1.80;;
50531;SDS011;36483;37.396;-122.212;2023-05-07T05:04:15;3.78;;;1.58;;
50531;SDS011;36483;37.396;-122.212;2023-05-07T05:06:41;3.17;;;1.58;;
50531;SDS011;36483;37.396;-122.212;2023-05-07T05:09:07;3.05;;;1.60;;
50531;SDS011;36483;37.396;-122.212;2023-05-07T05:11:33;3.85;;;2.00;;
50531;SDS011;36483;37.396;-122.212;2023-05-07T05:16:44;7.40;;;1.70;;
50531;SDS011;36483;37.396;-122.212;2023-05-07T05:19:10;4.22;;;1.85;;
50531;SDS011;36483;37.396;-122.212;2023-05-07T05:21:36;6.72;;;1.80;;
50531;SDS011;36483;37.396;-122.212;2023-05-07T05:24:03;3.63;;;1.63;;
50531;SDS011;36483;37.396;-122.212;2023-05-07T05:26:29;3.40;;;1.75;;
50531;SDS011;36483;37.396;-122.212;2023-05-07T05:28:55;3.88;;;1.50;;
50531;SDS011;36483;37.396;-122.212;2023-05-07T05:31:21;4.82;;;1.73;;
50531;SDS011;36483;37.396;-122.212;2023-05-07T05:33:47;4.93;;;1.73;;
50531;SDS011;36483;37.396;-122.212;2023-05-07T05:36:13;4.20;;;1.90;;
50531;SDS011;36483;37.396;-122.212;2023-05-07T05:38:40;5.63;;;1.75;;
50531;SDS011;36483;37.396;-122.212;2023-05-07T05:41:06;8.05;;;2.17;;
50531;SDS011;36483;37.396;-122.212;2023-05-07T05:43:32;3.55;;;2.03;;
50531;SDS011;36483;37.396;-122.212;2023-05-07T05:45:58;3.55;;;2.03;;
50531;SDS011;36483;37.396;-122.212;2023-05-07T05:48:25;5.35;;;1.83;;
50531;SDS011;36483;37.396;-122.212;2023-05-07T05:50:51;4.18;;;1.70;;
50531;SDS011;36483;37.396;-122.212;2023-05-07T05:53:17;3.42;;;1.92;;
50531;SDS011;36483;37.396;-122.212;2023-05-07T05:55:44;4.72;;;2.30;;
50531;SDS011;36483;37.396;-122.212;2023-05-07T05:58:10;6.30;;;2.35;;
50531;SDS011;36483;37.396;-122.212;2023-05-07T06:00:36;4.55;;;2.08;;
50531;SDS011;36483;37.396;-122.212;2023-05-07T06:03:02;7.20;;;2.20;;
50531;SDS011;36483;37.396;-122.212;2023-05-07T06:05:29;4.85;;;2.25;;
50531;SDS011;36483;37.396;-122.212;2023-05-07T06:07:55;4.97;;;1.92;;
50531;SDS011;36483;37.396;-122.212;2023-05-07T06:10:21;4.88;;;2.13;;
50531;SDS011;36483;37.396;-122.212;2023-05-07T06:12:47;5.18;;;2.50;;
50531;SDS011;36483;37.396;-122.212;2023-05-07T06:15:13;3.83;;;2.10;;
50531;SDS011;36483;37.396;-122.212;2023-05-07T06:17:40;5.15;;;2.03;;
50531;SDS011;36483;37.396;-122.212;2023-05-07T06:20:06;4.40;;;2.00;;
50531;SDS011;36483;37.396;-122.212;2023-05-07T06:22:33;4.70;;;2.03;;
50531;SDS011;36483;37.396;-122.212;2023-05-07T06:24:59;3.63;;;2.15;;
50531;SDS011;36483;37.396;-122.212;2023-05-07T06:27:25;6.53;;;2.47;;
50531;SDS011;36483;37.396;-122.212;2023-05-07T06:29:53;4.20;;;1.90;;
50531;SDS011;36483;37.396;-122.212;2023-05-07T06:32:19;6.05;;;2.35;;
50531;SDS011;36483;37.396;-122.212;2023-05-07T06:34:45;5.18;;;2.00;;
50531;SDS011;36483;37.396;-122.212;2023-05-07T06:37:12;5.10;;;2.17;;
50531;SDS011;36483;37.396;-122.212;2023-05-07T06:39:38;7.70;;;2.30;;
50531;SDS011;36483;37.396;-122.212;2023-05-07T06:42:04;5.68;;;2.15;;
50531;SDS011;36483;37.396;-122.212;2023-05-07T06:44:31;5.93;;;2.53;;
50531;SDS011;36483;37.396;-122.212;2023-05-07T06:46:57;3.50;;;2.15;;
50531;SDS011;36483;37.396;-122.212;2023-05-07T06:49:23;6.50;;;2.25;;
50531;SDS011;36483;37.396;-122.212;2023-05-07T06:51:50;5.50;;;2.20;;
50531;SDS011;36483;37.396;-122.212;2023-05-07T06:54:16;4.05;;;2.00;;
50531;SDS011;36483;37.396;-122.212;2023-05-07T06:56:43;4.78;;;2.28;;
50531;SDS011;36483;37.396;-122.212;2023-05-07T06:59:09;4.60;;;1.88;;
50531;SDS011;36483;37.396;-122.212;2023-05-07T07:01:35;5.05;;;1.90;;
50531;SDS011;36483;37.396;-122.212;2023-05-07T07:04:01;4.20;;;2.10;;
50531;SDS011;36483;37.396;-122.212;2023-05-07T07:06:27;4.32;;;2.17;;
50531;SDS011;36483;37.396;-122.212;2023-05-07T07:08:53;3.85;;;1.90;;
50531;SDS011;36483;37.396;-122.212;2023-05-07T07:11:20;4.18;;;1.88;;
50531;SDS011;36483;37.396;-122.212;2023-05-07T07:13:46;4.88;;;2.25;;
50531;SDS011;36483;37.396;-122.212;2023-05-07T07:16:12;4.72;;;1.77;;
50531;SDS011;36483;37.396;-122.212;2023-05-07T07:18:38;4.93;;;1.90;;
50531;SDS011;36483;37.396;-122.212;2023-05-07T07:21:05;5.22;;;2.22;;
50531;SDS011;36483;37.396;-122.212;2023-05-07T07:23:31;3.15;;;1.52;;
50531;SDS011;36483;37.396;-122.212;2023-05-07T07:25:58;3.53;;;1.85;;
50531;SDS011;36483;37.396;-122.212;2023-05-07T07:28:24;5.18;;;1.70;;
50531;SDS011;36483;37.396;-122.212;2023-05-07T07:30:50;4.18;;;1.80;;
50531;SDS011;36483;37.396;-122.212;2023-05-07T07:33:17;6.28;;;1.88;;
50531;SDS011;36483;37.396;-122.212;2023-05-07T07:35:43;5.55;;;1.80;;
50531;SDS011;36483;37.396;-122.212;2023-05-07T07:38:10;3.83;;;1.98;;
50531;SDS011;36483;37.396;-122.212;2023-05-07T07:40:36;3.33;;;1.55;;
50531;SDS011;36483;37.396;-122.212;2023-05-07T07:43:03;4.10;;;1.95;;
50531;SDS011;36483;37.396;-122.212;2023-05-07T07:45:30;4.15;;;2.35;;
50531;SDS011;36483;37.396;-122.212;2023-05-07T07:47:56;4.90;;;1.98;;
50531;SDS011;36483;37.396;-122.212;2023-05-07T07:50:22;4.47;;;1.90;;
50531;SDS011;36483;37.396;-122.212;2023-05-07T07:52:48;4.63;;;1.92;;
50531;SDS011;36483;37.396;-122.212;2023-05-07T07:55:15;4.80;;;2.00;;
50531;SDS011;36483;37.396;-122.212;2023-05-07T07:57:46;6.35;;;2.00;;
50531;SDS011;36483;37.396;-122.212;2023-05-07T08:00:12;4.72;;;1.80;;
50531;SDS011;36483;37.396;-122.212;2023-05-07T08:02:39;3.95;;;1.90;;
50531;SDS011;36483;37.396;-122.212;2023-05-07T08:05:05;4.55;;;1.63;;
50531;SDS011;36483;37.396;-122.212;2023-05-07T08:07:31;4.13;;;1.90;;
50531;SDS011;36483;37.396;-122.212;2023-05-07T08:09:58;6.30;;;2.15;;
50531;SDS011;36483;37.396;-122.212;2023-05-07T08:12:24;3.50;;;1.90;;
50531;SDS011;36483;37.396;-122.212;2023-05-07T08:14:50;4.47;;;1.90;;
50531;SDS011;36483;37.396;-122.212;2023-05-07T08:17:16;4.10;;;1.90;;
50531;SDS011;36483;37.396;-122.212;2023-05-07T08:19:42;4.32;;;1.98;;
50531;SDS011;36483;37.396;-122.212;2023-05-07T08:22:09;4.50;;;2.08;;
50531;SDS011;36483;37.396;-122.212;2023-05-07T08:24:36;4.60;;;2.30;;
50531;SDS011;36483;37.396;-122.212;2023-05-07T08:27:02;3.35;;;1.90;;
50531;SDS011;36483;37.396;-122.212;2023-05-07T08:29:28;4.50;;;1.90;;
50531;SDS011;36483;37.396;-122.212;2023-05-07T08:31:54;3.35;;;2.00;;
50531;SDS011;36483;37.396;-122.212;2023-05-07T08:34:21;5.10;;;2.00;;
50531;SDS011;36483;37.396;-122.212;2023-05-07T08:36:48;3.75;;;1.90;;
50531;SDS011;36483;37.396;-122.212;2023-05-07T08:39:17;4.40;;;2.15;;
50531;SDS011;36483;37.396;-122.212;2023-05-07T08:41:44;2.90;;;1.60;;
50531;SDS011;36483;37.396;-122.212;2023-05-07T08:44:14;5.45;;;1.83;;
50531;SDS011;36483;37.396;-122.212;2023-05-07T08:46:40;4.00;;;1.67;;
50531;SDS011;36483;37.396;-122.212;2023-05-07T08:49:08;3.40;;;1.83;;
50531;SDS011;36483;37.396;-122.212;2023-05-07T08:51:35;3.60;;;1.75;;
50531;SDS011;36483;37.396;-122.212;2023-05-07T08:54:01;3.67;;;1.90;;
50531;SDS011;36483;37.396;-122.212;2023-05-07T08:56:28;6.10;;;1.88;;
50531;SDS011;36483;37.396;-122.212;2023-05-07T08:58:54;4.93;;;1.67;;
50531;SDS011;36483;37.396;-122.212;2023-05-07T09:01:23;3.60;;;1.63;;
50531;SDS011;36483;37.396;-122.212;2023-05-07T09:03:50;7.15;;;1.85;;
50531;SDS011;36483;37.396;-122.212;2023-05-07T09:06:17;6.28;;;1.90;;
50531;SDS011;36483;37.396;-122.212;2023-05-07T09:08:52;2.30;;;1.50;;
50531;SDS011;36483;37.396;-122.212;2023-05-07T09:11:20;3.88;;;1.42;;
50531;SDS011;36483;37.396;-122.212;2023-05-07T09:13:47;5.10;;;1.70;;
50531;SDS011;36483;37.396;-122.212;2023-05-07T09:16:15;5.32;;;1.85;;
50531;SDS011;36483;37.396;-122.212;2023-05-07T09:18:42;5.50;;;1.80;;
50531;SDS011;36483;37.396;-122.212;2023-05-07T09:21:15;3.03;;;1.65;;
50531;SDS011;36483;37.396;-122.212;2023-05-07T09:23:41;4.70;;;1.75;;
50531;SDS011;36483;37.396;-122.212;2023-05-07T09:26:07;3.22;;;1.80;;
50531;SDS011;36483;37.396;-122.212;2023-05-07T09:28:41;5.07;;;1.80;;
50531;SDS011;36483;37.396;-122.212;2023-05-07T09:31:08;7.15;;;1.73;;
50531;SDS011;36483;37.396;-122.212;2023-05-07T09:33:34;3.63;;;1.60;;
50531;SDS011;36483;37.396;-122.212;2023-05-07T09:36:07;5.47;;;1.80;;
50531;SDS011;36483;37.396;-122.212;2023-05-07T09:38:35;6.20;;;1.75;;
50531;SDS011;36483;37.396;-122.212;2023-05-07T09:41:02;5.93;;;1.90;;
50531;SDS011;36483;37.396;-122.212;2023-05-07T09:43:31;4.82;;;1.73;;
50531;SDS011;36483;37.396;-122.212;2023-05-07T09:46:14;5.45;;;1.85;;
50531;SDS011;36483;37.396;-122.212;2023-05-07T09:48:43;3.70;;;1.77;;
50531;SDS011;36483;37.396;-122.212;2023-05-07T09:51:18;3.70;;;1.80;;
50531;SDS011;36483;37.396;-122.212;2023-05-07T09:53:52;5.05;;;2.13;;
50531;SDS011;36483;37.396;-122.212;2023-05-07T09:56:19;6.10;;;2.13;;
50531;SDS011;36483;37.396;-122.212;2023-05-07T09:58:46;5.07;;;1.80;;
50531;SDS011;36483;37.396;-122.212;2023-05-07T10:01:12;4.00;;;1.80;;
50531;SDS011;36483;37.396;-122.212;2023-05-07T10:03:42;2.83;;;1.70;;
50531;SDS011;36483;37.396;-122.212;2023-05-07T10:06:09;5.82;;;1.90;;
50531;SDS011;36483;37.396;-122.212;2023-05-07T10:08:36;3.47;;;1.70;;
50531;SDS011;36483;37.396;-122.212;2023-05-07T10:11:03;6.57;;;2.10;;
50531;SDS011;36483;37.396;-122.212;2023-05-07T10:13:32;4.60;;;2.22;;
50531;SDS011;36483;37.396;-122.212;2023-05-07T10:16:02;3.83;;;1.90;;
50531;SDS011;36483;37.396;-122.212;2023-05-07T10:18:30;6.72;;;2.35;;
50531;SDS011;36483;37.396;-122.212;2023-05-07T10:21:06;7.20;;;2.40;;
50531;SDS011;36483;37.396;-122.212;2023-05-07T10:23:33;5.45;;;2.03;;
50531;SDS011;36483;37.396;-122.212;2023-05-07T10:26:03;4.13;;;2.00;;
50531;SDS011;36483;37.396;-122.212;2023-05-07T10:28:32;8.07;;;2.23;;
50531;SDS011;36483;37.396;-122.212;2023-05-07T10:33:36;5.15;;;2.10;;
50531;SDS011;36483;37.396;-122.212;2023-05-07T10:36:03;6.95;;;2.10;;
50531;SDS011;36483;37.396;-122.212;2023-05-07T10:38:31;3.20;;;2.10;;
50531;SDS011;36483;37.396;-122.212;2023-05-07T10:40:58;3.38;;;1.90;;
50531;SDS011;36483;37.396;-122.212;2023-05-07T10:43:24;5.57;;;2.00;;
50531;SDS011;36483;37.396;-122.212;2023-05-07T10:46:09;4.13;;;2.25;;
50531;SDS011;36483;37.396;-122.212;2023-05-07T10:49:25;6.65;;;2.42;;
50531;SDS011;36483;37.396;-122.212;2023-05-07T10:51:32;6.93;;;2.47;;
50531;SDS011;36483;37.396;-122.212;2023-05-07T10:54:18;4.53;;;1.90;;
50531;SDS011;36483;37.396;-122.212;2023-05-07T10:56:44;6.00;;;2.30;;
50531;SDS011;36483;37.396;-122.212;2023-05-07T11:01:57;4.82;;;2.00;;
50531;SDS011;36483;37.396;-122.212;2023-05-07T11:04:31;6.50;;;2.15;;
50531;SDS011;36483;37.396;-122.212;2023-05-07T11:15:05;3.20;;;1.80;;
50531;SDS011;36483;37.396;-122.212;2023-05-07T11:17:32;5.55;;;2.20;;
50531;SDS011;36483;37.396;-122.212;2023-05-07T11:20:02;3.30;;;1.90;;
50531;SDS011;36483;37.396;-122.212;2023-05-07T11:25:01;7.80;;;2.13;;
50531;SDS011;36483;37.396;-122.212;2023-05-07T11:27:27;5.32;;;2.25;;
50531;SDS011;36483;37.396;-122.212;2023-05-07T11:29:54;6.50;;;2.22;;
50531;SDS011;36483;37.396;-122.212;2023-05-07T11:34:57;6.90;;;2.40;;
50531;SDS011;36483;37.396;-122.212;2023-05-07T11:37:24;6.07;;;1.98;;
50531;SDS011;36483;37.396;-122.212;2023-05-07T11:40:06;5.65;;;1.90;;
50531;SDS011;36483;37.396;-122.212;2023-05-07T11:42:35;4.28;;;1.98;;
50531;SDS011;36483;37.396;-122.212;2023-05-07T11:45:03;6.03;;;2.05;;
50531;SDS011;36483;37.396;-122.212;2023-05-07T11:47:31;6.75;;;1.80;;
50531;SDS011;36483;37.396;-122.212;2023-05-07T11:49:57;5.43;;;2.10;;
50531;SDS011;36483;37.396;-122.212;2023-05-07T11:52:31;7.13;;;2.10;;
50531;SDS011;36483;37.396;-122.212;2023-05-07T11:54:58;7.13;;;2.20;;
50531;SDS011;36483;37.396;-122.212;2023-05-07T11:57:28;6.00;;;2.27;;
50531;SDS011;36483;37.396;-122.212;2023-05-07T11:59:55;5.70;;;2.28;;
50531;SDS011;36483;37.396;-122.212;2023-05-07T12:02:22;4.07;;;2.05;;
50531;SDS011;36483;37.396;-122.212;2023-05-07T12:04:53;6.65;;;2.30;;
50531;SDS011;36483;37.396;-122.212;2023-05-07T12:07:23;5.72;;;1.88;;
50531;SDS011;36483;37.396;-122.212;2023-05-07T12:09:50;5.00;;;1.75;;
50531;SDS011;36483;37.396;-122.212;2023-05-07T12:12:16;4.63;;;1.90;;
50531;SDS011;36483;37.396;-122.212;2023-05-07T12:14:43;7.47;;;2.30;;
50531;SDS011;36483;37.396;-122.212;2023-05-07T12:17:10;4.53;;;1.80;;
50531;SDS011;36483;37.396;-122.212;2023-05-07T12:19:38;3.58;;;2.03;;
50531;SDS011;36483;37.396;-122.212;2023-05-07T12:22:05;4.15;;;1.98;;
50531;SDS011;36483;37.396;-122.212;2023-05-07T12:24:49;4.25;;;1.85;;
50531;SDS011;36483;37.396;-122.212;2023-05-07T12:27:22;5.97;;;1.80;;
50531;SDS011;36483;37.396;-122.212;2023-05-07T12:29:48;5.40;;;1.73;;
50531;SDS011;36483;37.396;-122.212;2023-05-07T12:32:19;9.00;;;1.95;;
50531;SDS011;36483;37.396;-122.212;2023-05-07T12:34:47;4.32;;;1.90;;
50531;SDS011;36483;37.396;-122.212;2023-05-07T12:37:15;3.78;;;1.80;;
50531;SDS011;36483;37.396;-122.212;2023-05-07T12:39:48;4.30;;;2.00;;
50531;SDS011;36483;37.396;-122.212;2023-05-07T12:42:15;4.25;;;1.92;;
50531;SDS011;36483;37.396;-122.212;2023-05-07T12:44:43;3.85;;;1.70;;
50531;SDS011;36483;37.396;-122.212;2023-05-07T12:47:11;5.97;;;1.80;;
50531;SDS011;36483;37.396;-122.212;2023-05-07T12:49:38;5.35;;;2.03;;
50531;SDS011;36483;37.396;-122.212;2023-05-07T12:52:05;4.28;;;1.98;;
50531;SDS011;36483;37.396;-122.212;2023-05-07T12:54:35;4.50;;;1.80;;
50531;SDS011;36483;37.396;-122.212;2023-05-07T12:57:09;2.90;;;1.85;;
50531;SDS011;36483;37.396;-122.212;2023-05-07T12:59:36;5.47;;;2.00;;
50531;SDS011;36483;37.396;-122.212;2023-05-07T13:02:04;3.63;;;1.90;;
50531;SDS011;36483;37.396;-122.212;2023-05-07T13:04:30;5.50;;;2.15;;
50531;SDS011;36483;37.396;-122.212;2023-05-07T13:06:57;3.00;;;1.95;;
50531;SDS011;36483;37.396;-122.212;2023-05-07T13:09:24;4.30;;;2.00;;
50531;SDS011;36483;37.396;-122.212;2023-05-07T13:11:50;5.72;;;2.30;;
50531;SDS011;36483;37.396;-122.212;2023-05-07T13:14:16;3.22;;;2.10;;
50531;SDS011;36483;37.396;-122.212;2023-05-07T13:16:43;5.57;;;2.10;;
50531;SDS011;36483;37.396;-122.212;2023-05-07T13:19:09;6.40;;;2.33;;
50531;SDS011;36483;37.396;-122.212;2023-05-07T13:21:36;5.05;;;2.33;;
50531;SDS011;36483;37.396;-122.212;2023-05-07T13:24:02;4.50;;;2.10;;
50531;SDS011;36483;37.396;-122.212;2023-05-07T13:26:30;3.17;;;1.90;;
50531;SDS011;36483;37.396;-122.212;2023-05-07T13:28:56;5.90;;;2.05;;
50531;SDS011;36483;37.396;-122.212;2023-05-07T13:31:23;6.32;;;1.98;;
50531;SDS011;36483;37.396;-122.212;2023-05-07T13:33:49;3.15;;;2.03;;
50531;SDS011;36483;37.396;-122.212;2023-05-07T13:36:16;4.40;;;2.00;;
50531;SDS011;36483;37.396;-122.212;2023-05-07T13:38:42;2.95;;;1.88;;
50531;SDS011;36483;37.396;-122.212;2023-05-07T13:41:08;5.05;;;1.92;;
50531;SDS011;36483;37.396;-122.212;2023-05-07T13:43:35;3.88;;;2.10;;
50531;SDS011;36483;37.396;-122.212;2023-05-07T13:46:01;4.38;;;2.10;;
50531;SDS011;36483;37.396;-122.212;2023-05-07T13:48:27;4.45;;;2.40;;
50531;SDS011;36483;37.396;-122.212;2023-05-07T13:50:56;4.03;;;2.15;;
50531;SDS011;36483;37.396;-122.212;2023-05-07T13:53:22;4.63;;;1.90;;
50531;SDS011;36483;37.396;-122.212;2023-05-07T13:55:48;4.22;;;2.17;;
50531;SDS011;36483;37.396;-122.212;2023-05-07T13:58:14;3.28;;;1.80;;
50531;SDS011;36483;37.396;-122.212;2023-05-07T14:00:41;4.50;;;2.33;;
50531;SDS011;36483;37.396;-122.212;2023-05-07T14:03:07;4.13;;;2.35;;
50531;SDS011;36483;37.396;-122.212;2023-05-07T14:05:33;4.18;;;2.20;;
50531;SDS011;36483;37.396;-122.212;2023-05-07T14:08:00;4.75;;;1.88;;
50531;SDS011;36483;37.396;-122.212;2023-05-07T14:10:26;5.40;;;2.08;;
50531;SDS011;36483;37.396;-122.212;2023-05-07T14:12:52;5.97;;;2.22;;
50531;SDS011;36483;37.396;-122.212;2023-05-07T14:15:19;6.10;;;2.25;;
50531;SDS011;36483;37.396;-122.212;2023-05-07T14:17:45;4.93;;;2.10;;
50531;SDS011;36483;37.396;-122.212;2023-05-07T14:20:12;8.20;;;2.20;;
50531;SDS011;36483;37.396;-122.212;2023-05-07T14:22:38;4.35;;;2.10;;
50531;SDS011;36483;37.396;-122.212;2023-05-07T14:25:04;4.85;;;2.10;;
50531;SDS011;36483;37.396;-122.212;2023-05-07T14:27:31;5.40;;;2.42;;
50531;SDS011;36483;37.396;-122.212;2023-05-07T14:29:57;4.53;;;1.90;;